sensor_id;sensor_type;location;lat;lon;timestamp;temperature;humidity
22940;DHT22;11636;52.086;5.090;2024-03-08T00:02:16;3.70;99.90
22940;DHT22;11636;52.086;5.090;2024-03-08T00:04:49;3.60;99.90
22940;DHT22;11636;52.086;5.090;2024-03-08T00:07:22;3.70;99.90
22940;DHT22;11636;52.086;5.090;2024-03-08T00:09:55;3.60;99.90
22940;DHT22;11636;52.086;5.090;2024-03-08T00:12:22;3.60;99.90
22940;DHT22;11636;52.086;5.090;2024-03-08T00:14:55;3.60;99.90
22940;DHT22;11636;52.086;5.090;2024-03-08T00:17:22;3.60;99.90
22940;DHT22;11636;52.086;5.090;2024-03-08T00:19:55;3.50;99.90
22940;DHT22;11636;52.086;5.090;2024-03-08T00:22:22;3.50;99.90
22940;DHT22;11636;52.086;5.090;2024-03-08T00:24:49;3.50;99.90
22940;DHT22;11636;52.086;5.090;2024-03-08T00:27:25;3.50;99.90
22940;DHT22;11636;52.086;5.090;2024-03-08T00:29:52;3.50;99.90
22940;DHT22;11636;52.086;5.090;2024-03-08T00:32:25;3.50;99.90
22940;DHT22;11636;52.086;5.090;2024-03-08T00:34:54;3.50;99.90
22940;DHT22;11636;52.086;5.090;2024-03-08T00:37:27;3.40;99.90
22940;DHT22;11636;52.086;5.090;2024-03-08T00:40:00;3.40;99.90
22940;DHT22;11636;52.086;5.090;2024-03-08T00:42:35;3.40;99.90
22940;DHT22;11636;52.086;5.090;2024-03-08T00:45:09;3.40;99.90
22940;DHT22;11636;52.086;5.090;2024-03-08T00:47:37;3.40;99.90
22940;DHT22;11636;52.086;5.090;2024-03-08T00:50:11;3.30;99.90
22940;DHT22;11636;52.086;5.090;2024-03-08T00:52:38;3.30;99.90
22940;DHT22;11636;52.086;5.090;2024-03-08T00:55:11;3.30;99.90
22940;DHT22;11636;52.086;5.090;2024-03-08T00:57:45;3.40;99.90
22940;DHT22;11636;52.086;5.090;2024-03-08T01:00:13;3.30;99.90
22940;DHT22;11636;52.086;5.090;2024-03-08T01:02:46;3.30;99.90
22940;DHT22;11636;52.086;5.090;2024-03-08T01:05:13;3.30;99.90
22940;DHT22;11636;52.086;5.090;2024-03-08T01:07:46;3.30;99.90
22940;DHT22;11636;52.086;5.090;2024-03-08T01:10:13;3.20;99.90
22940;DHT22;11636;52.086;5.090;2024-03-08T01:12:53;3.30;99.90
22940;DHT22;11636;52.086;5.090;2024-03-08T01:15:27;3.20;99.90
22940;DHT22;11636;52.086;5.090;2024-03-08T01:18:00;3.20;99.90
22940;DHT22;11636;52.086;5.090;2024-03-08T01:20:34;3.20;99.90
22940;DHT22;11636;52.086;5.090;2024-03-08T01:23:08;3.20;99.90
22940;DHT22;11636;52.086;5.090;2024-03-08T01:25:35;3.20;99.90
22940;DHT22;11636;52.086;5.090;2024-03-08T01:28:09;3.10;99.90
22940;DHT22;11636;52.086;5.090;2024-03-08T01:30:36;3.20;99.90
22940;DHT22;11636;52.086;5.090;2024-03-08T01:33:04;3.10;99.90
22940;DHT22;11636;52.086;5.090;2024-03-08T01:35:37;3.10;99.90
22940;DHT22;11636;52.086;5.090;2024-03-08T01:38:08;3.10;99.90
22940;DHT22;11636;52.086;5.090;2024-03-08T01:40:41;3.10;99.90
22940;DHT22;11636;52.086;5.090;2024-03-08T01:43:27;3.10;99.90
22940;DHT22;11636;52.086;5.090;2024-03-08T01:46:01;3.00;99.90
22940;DHT22;11636;52.086;5.090;2024-03-08T01:48:36;3.00;99.90
22940;DHT22;11636;52.086;5.090;2024-03-08T01:51:11;3.00;99.90
22940;DHT22;11636;52.086;5.090;2024-03-08T01:53:39;3.00;99.90
22940;DHT22;11636;52.086;5.090;2024-03-08T01:56:07;3.00;99.90
22940;DHT22;11636;52.086;5.090;2024-03-08T01:58:41;3.00;99.90
22940;DHT22;11636;52.086;5.090;2024-03-08T02:01:12;2.90;99.90
22940;DHT22;11636;52.086;5.090;2024-03-08T02:03:47;2.90;99.90
22940;DHT22;11636;52.086;5.090;2024-03-08T02:06:14;2.80;99.90
22940;DHT22;11636;52.086;5.090;2024-03-08T02:08:49;2.90;99.90
22940;DHT22;11636;52.086;5.090;2024-03-08T02:11:16;2.90;99.90
22940;DHT22;11636;52.086;5.090;2024-03-08T02:13:44;2.90;99.90
22940;DHT22;11636;52.086;5.090;2024-03-08T02:16:21;2.80;99.90
22940;DHT22;11636;52.086;5.090;2024-03-08T02:18:49;2.80;99.90
22940;DHT22;11636;52.086;5.090;2024-03-08T02:21:22;2.80;99.90
22940;DHT22;11636;52.086;5.090;2024-03-08T02:23:49;2.80;99.90
22940;DHT22;11636;52.086;5.090;2024-03-08T02:26:25;2.80;99.90
22940;DHT22;11636;52.086;5.090;2024-03-08T02:28:52;2.80;99.90
22940;DHT22;11636;52.086;5.090;2024-03-08T02:31:19;2.80;99.90
22940;DHT22;11636;52.086;5.090;2024-03-08T02:33:53;2.70;99.90
22940;DHT22;11636;52.086;5.090;2024-03-08T02:36:27;2.70;99.90
22940;DHT22;11636;52.086;5.090;2024-03-08T02:38:54;2.70;99.90
22940;DHT22;11636;52.086;5.090;2024-03-08T02:41:22;2.60;99.90
22940;DHT22;11636;52.086;5.090;2024-03-08T02:43:55;2.60;99.90
22940;DHT22;11636;52.086;5.090;2024-03-08T02:46:28;2.60;99.90
22940;DHT22;11636;52.086;5.090;2024-03-08T02:49:03;2.60;99.90
22940;DHT22;11636;52.086;5.090;2024-03-08T02:51:30;2.60;99.90
22940;DHT22;11636;52.086;5.090;2024-03-08T02:53:57;2.50;99.90
22940;DHT22;11636;52.086;5.090;2024-03-08T02:56:31;2.50;99.90
22940;DHT22;11636;52.086;5.090;2024-03-08T02:59:01;2.50;99.90
22940;DHT22;11636;52.086;5.090;2024-03-08T03:01:35;2.50;99.90
22940;DHT22;11636;52.086;5.090;2024-03-08T03:04:09;2.50;99.90
22940;DHT22;11636;52.086;5.090;2024-03-08T03:06:42;2.50;99.90
22940;DHT22;11636;52.086;5.090;2024-03-08T03:09:09;2.50;99.90
22940;DHT22;11636;52.086;5.090;2024-03-08T03:11:50;2.50;99.90
22940;DHT22;11636;52.086;5.090;2024-03-08T03:14:17;2.40;99.90
22940;DHT22;11636;52.086;5.090;2024-03-08T03:16:50;2.40;99.90
22940;DHT22;11636;52.086;5.090;2024-03-08T03:19:17;2.40;99.90
22940;DHT22;11636;52.086;5.090;2024-03-08T03:21:50;2.40;99.90
22940;DHT22;11636;52.086;5.090;2024-03-08T03:24:25;2.40;99.90
22940;DHT22;11636;52.086;5.090;2024-03-08T03:26:56;2.40;99.90
22940;DHT22;11636;52.086;5.090;2024-03-08T03:29:29;2.40;99.90
22940;DHT22;11636;52.086;5.090;2024-03-08T03:32:04;2.30;99.90
22940;DHT22;11636;52.086;5.090;2024-03-08T03:34:38;2.30;99.90
22940;DHT22;11636;52.086;5.090;2024-03-08T03:37:05;2.30;99.90
22940;DHT22;11636;52.086;5.090;2024-03-08T03:39:41;2.30;99.90
22940;DHT22;11636;52.086;5.090;2024-03-08T03:42:19;2.30;99.90
22940;DHT22;11636;52.086;5.090;2024-03-08T03:44:53;2.30;99.90
22940;DHT22;11636;52.086;5.090;2024-03-08T03:47:20;2.20;99.90
22940;DHT22;11636;52.086;5.090;2024-03-08T03:49:54;2.20;99.90
22940;DHT22;11636;52.086;5.090;2024-03-08T03:52:22;2.20;99.90
22940;DHT22;11636;52.086;5.090;2024-03-08T03:54:55;2.20;99.90
22940;DHT22;11636;52.086;5.090;2024-03-08T03:57:37;2.20;99.90
22940;DHT22;11636;52.086;5.090;2024-03-08T04:00:25;2.20;99.90
22940;DHT22;11636;52.086;5.090;2024-03-08T04:02:54;2.20;99.90
22940;DHT22;11636;52.086;5.090;2024-03-08T04:05:28;2.10;99.90
22940;DHT22;11636;52.086;5.090;2024-03-08T04:08:02;2.10;99.90
22940;DHT22;11636;52.086;5.090;2024-03-08T04:10:29;2.10;99.90
22940;DHT22;11636;52.086;5.090;2024-03-08T04:12:56;2.10;99.90
22940;DHT22;11636;52.086;5.090;2024-03-08T04:15:29;2.10;99.90
22940;DHT22;11636;52.086;5.090;2024-03-08T04:17:57;2.10;99.90
22940;DHT22;11636;52.086;5.090;2024-03-08T04:20:24;2.10;99.90
22940;DHT22;11636;52.086;5.090;2024-03-08T04:22:59;2.10;99.90
22940;DHT22;11636;52.086;5.090;2024-03-08T04:25:32;2.10;99.90
22940;DHT22;11636;52.086;5.090;2024-03-08T04:28:00;2.00;99.90
22940;DHT22;11636;52.086;5.090;2024-03-08T04:30:33;2.10;99.90
22940;DHT22;11636;52.086;5.090;2024-03-08T04:33:07;2.00;99.90
22940;DHT22;11636;52.086;5.090;2024-03-08T04:35:35;2.00;99.90
22940;DHT22;11636;52.086;5.090;2024-03-08T04:38:02;2.00;99.90
22940;DHT22;11636;52.086;5.090;2024-03-08T04:40:38;2.00;99.90
22940;DHT22;11636;52.086;5.090;2024-03-08T04:43:05;1.90;99.90
22940;DHT22;11636;52.086;5.090;2024-03-08T04:45:39;2.00;99.90
22940;DHT22;11636;52.086;5.090;2024-03-08T04:48:10;2.00;99.90
22940;DHT22;11636;52.086;5.090;2024-03-08T04:50:44;1.90;99.90
22940;DHT22;11636;52.086;5.090;2024-03-08T04:53:11;1.90;99.90
22940;DHT22;11636;52.086;5.090;2024-03-08T04:55:45;1.90;99.90
22940;DHT22;11636;52.086;5.090;2024-03-08T04:58:11;1.90;99.90
22940;DHT22;11636;52.086;5.090;2024-03-08T05:00:44;1.90;99.90
22940;DHT22;11636;52.086;5.090;2024-03-08T05:03:11;1.90;99.90
22940;DHT22;11636;52.086;5.090;2024-03-08T05:05:44;1.90;99.90
22940;DHT22;11636;52.086;5.090;2024-03-08T05:08:11;1.90;99.90
22940;DHT22;11636;52.086;5.090;2024-03-08T05:10:45;1.80;99.90
22940;DHT22;11636;52.086;5.090;2024-03-08T05:13:12;1.80;99.90
22940;DHT22;11636;52.086;5.090;2024-03-08T05:15:48;1.80;99.90
22940;DHT22;11636;52.086;5.090;2024-03-08T05:18:22;1.80;99.90
22940;DHT22;11636;52.086;5.090;2024-03-08T05:20:49;1.80;99.90
22940;DHT22;11636;52.086;5.090;2024-03-08T05:23:24;1.80;99.90
22940;DHT22;11636;52.086;5.090;2024-03-08T05:25:51;1.80;99.90
22940;DHT22;11636;52.086;5.090;2024-03-08T05:28:25;1.80;99.90
22940;DHT22;11636;52.086;5.090;2024-03-08T05:30:51;1.80;99.90
22940;DHT22;11636;52.086;5.090;2024-03-08T05:33:18;1.80;99.90
22940;DHT22;11636;52.086;5.090;2024-03-08T05:35:53;1.80;99.90
22940;DHT22;11636;52.086;5.090;2024-03-08T05:38:20;1.80;99.90
22940;DHT22;11636;52.086;5.090;2024-03-08T05:40:54;1.70;99.90
22940;DHT22;11636;52.086;5.090;2024-03-08T05:43:21;1.80;99.90
22940;DHT22;11636;52.086;5.090;2024-03-08T05:45:55;1.70;99.90
22940;DHT22;11636;52.086;5.090;2024-03-08T05:48:29;1.70;99.90
22940;DHT22;11636;52.086;5.090;2024-03-08T05:51:02;1.70;99.90
22940;DHT22;11636;52.086;5.090;2024-03-08T05:53:36;1.70;99.90
22940;DHT22;11636;52.086;5.090;2024-03-08T05:56:09;1.70;99.90
22940;DHT22;11636;52.086;5.090;2024-03-08T05:58:36;1.70;99.90
22940;DHT22;11636;52.086;5.090;2024-03-08T06:01:03;1.70;99.90
22940;DHT22;11636;52.086;5.090;2024-03-08T06:03:41;1.70;99.90
22940;DHT22;11636;52.086;5.090;2024-03-08T06:06:13;1.70;99.90
22940;DHT22;11636;52.086;5.090;2024-03-08T06:08:47;1.70;99.90
22940;DHT22;11636;52.086;5.090;2024-03-08T06:11:16;1.70;99.90
22940;DHT22;11636;52.086;5.090;2024-03-08T06:13:53;1.70;99.90
22940;DHT22;11636;52.086;5.090;2024-03-08T06:16:33;1.70;99.90
22940;DHT22;11636;52.086;5.090;2024-03-08T06:19:00;1.70;99.90
22940;DHT22;11636;52.086;5.090;2024-03-08T06:21:36;1.70;99.90
22940;DHT22;11636;52.086;5.090;2024-03-08T06:24:03;1.70;99.90
22940;DHT22;11636;52.086;5.090;2024-03-08T06:26:37;1.70;99.90
22940;DHT22;11636;52.086;5.090;2024-03-08T06:29:05;1.80;99.90
22940;DHT22;11636;52.086;5.090;2024-03-08T06:31:42;1.80;99.90
22940;DHT22;11636;52.086;5.090;2024-03-08T06:34:09;1.80;99.90
22940;DHT22;11636;52.086;5.090;2024-03-08T06:36:42;1.80;99.90
22940;DHT22;11636;52.086;5.090;2024-03-08T06:39:08;1.80;99.90
22940;DHT22;11636;52.086;5.090;2024-03-08T06:41:38;1.80;99.90
22940;DHT22;11636;52.086;5.090;2024-03-08T06:44:12;1.90;99.90
22940;DHT22;11636;52.086;5.090;2024-03-08T06:46:45;1.90;99.90
22940;DHT22;11636;52.086;5.090;2024-03-08T06:49:18;1.90;99.90
22940;DHT22;11636;52.086;5.090;2024-03-08T06:51:45;1.90;99.90
22940;DHT22;11636;52.086;5.090;2024-03-08T06:54:11;1.90;99.90
22940;DHT22;11636;52.086;5.090;2024-03-08T06:56:45;2.00;99.90
22940;DHT22;11636;52.086;5.090;2024-03-08T06:59:12;2.00;99.90
22940;DHT22;11636;52.086;5.090;2024-03-08T07:01:45;2.00;99.90
22940;DHT22;11636;52.086;5.090;2024-03-08T07:04:13;2.00;99.90
22940;DHT22;11636;52.086;5.090;2024-03-08T07:06:46;2.10;99.90
22940;DHT22;11636;52.086;5.090;2024-03-08T07:09:13;2.10;99.90
22940;DHT22;11636;52.086;5.090;2024-03-08T07:11:43;2.10;99.90
22940;DHT22;11636;52.086;5.090;2024-03-08T07:14:17;2.20;99.90
22940;DHT22;11636;52.086;5.090;2024-03-08T07:16:51;2.20;99.90
22940;DHT22;11636;52.086;5.090;2024-03-08T07:19:24;2.20;99.90
22940;DHT22;11636;52.086;5.090;2024-03-08T07:21:57;2.20;99.90
22940;DHT22;11636;52.086;5.090;2024-03-08T07:24:30;2.30;99.90
22940;DHT22;11636;52.086;5.090;2024-03-08T07:27:17;2.30;99.90
22940;DHT22;11636;52.086;5.090;2024-03-08T07:29:51;2.40;99.90
22940;DHT22;11636;52.086;5.090;2024-03-08T07:32:34;2.40;99.90
22940;DHT22;11636;52.086;5.090;2024-03-08T07:35:08;2.40;99.90
22940;DHT22;11636;52.086;5.090;2024-03-08T07:37:38;2.50;99.90
22940;DHT22;11636;52.086;5.090;2024-03-08T07:40:07;2.50;99.90
22940;DHT22;11636;52.086;5.090;2024-03-08T07:42:41;2.60;99.90
22940;DHT22;11636;52.086;5.090;2024-03-08T07:45:08;2.60;99.90
22940;DHT22;11636;52.086;5.090;2024-03-08T07:47:42;2.70;99.90
22940;DHT22;11636;52.086;5.090;2024-03-08T07:50:10;2.80;99.90
22940;DHT22;11636;52.086;5.090;2024-03-08T07:52:43;2.80;99.90
22940;DHT22;11636;52.086;5.090;2024-03-08T07:55:10;2.80;99.90
22940;DHT22;11636;52.086;5.090;2024-03-08T07:57:43;2.80;99.90
22940;DHT22;11636;52.086;5.090;2024-03-08T08:00:16;2.90;99.90
22940;DHT22;11636;52.086;5.090;2024-03-08T08:02:53;3.00;99.90
22940;DHT22;11636;52.086;5.090;2024-03-08T08:05:20;3.00;99.90
22940;DHT22;11636;52.086;5.090;2024-03-08T08:07:47;3.10;99.90
22940;DHT22;11636;52.086;5.090;2024-03-08T08:10:21;3.10;99.90
22940;DHT22;11636;52.086;5.090;2024-03-08T08:12:49;3.10;99.90
22940;DHT22;11636;52.086;5.090;2024-03-08T08:15:22;3.20;99.90
22940;DHT22;11636;52.086;5.090;2024-03-08T08:17:49;3.30;99.90
22940;DHT22;11636;52.086;5.090;2024-03-08T08:20:23;3.30;99.90
22940;DHT22;11636;52.086;5.090;2024-03-08T08:22:50;3.30;99.90
22940;DHT22;11636;52.086;5.090;2024-03-08T08:25:23;3.40;99.90
22940;DHT22;11636;52.086;5.090;2024-03-08T08:27:51;3.40;99.90
22940;DHT22;11636;52.086;5.090;2024-03-08T08:30:26;3.50;99.90
22940;DHT22;11636;52.086;5.090;2024-03-08T08:32:53;3.50;99.90
22940;DHT22;11636;52.086;5.090;2024-03-08T08:35:26;3.60;99.90
22940;DHT22;11636;52.086;5.090;2024-03-08T08:38:00;3.70;99.90
22940;DHT22;11636;52.086;5.090;2024-03-08T08:40:28;3.70;99.90
22940;DHT22;11636;52.086;5.090;2024-03-08T08:43:01;3.80;99.90
22940;DHT22;11636;52.086;5.090;2024-03-08T08:45:37;3.80;99.90
22940;DHT22;11636;52.086;5.090;2024-03-08T08:48:06;3.90;99.90
22940;DHT22;11636;52.086;5.090;2024-03-08T08:50:33;3.90;99.90
22940;DHT22;11636;52.086;5.090;2024-03-08T08:53:07;4.00;99.90
22940;DHT22;11636;52.086;5.090;2024-03-08T08:55:34;4.10;99.90
22940;DHT22;11636;52.086;5.090;2024-03-08T08:58:09;4.20;99.90
22940;DHT22;11636;52.086;5.090;2024-03-08T09:00:36;4.30;99.90
22940;DHT22;11636;52.086;5.090;2024-03-08T09:03:03;4.40;99.90
22940;DHT22;11636;52.086;5.090;2024-03-08T09:05:36;4.60;99.90
22940;DHT22;11636;52.086;5.090;2024-03-08T09:08:11;4.70;99.90
22940;DHT22;11636;52.086;5.090;2024-03-08T09:10:46;4.80;99.90
22940;DHT22;11636;52.086;5.090;2024-03-08T09:13:17;5.00;99.90
22940;DHT22;11636;52.086;5.090;2024-03-08T09:15:58;5.20;99.90
22940;DHT22;11636;52.086;5.090;2024-03-08T09:18:25;5.30;99.90
22940;DHT22;11636;52.086;5.090;2024-03-08T09:20:58;5.50;99.90
22940;DHT22;11636;52.086;5.090;2024-03-08T09:23:26;5.60;99.90
22940;DHT22;11636;52.086;5.090;2024-03-08T09:26:03;5.70;99.90
22940;DHT22;11636;52.086;5.090;2024-03-08T09:28:36;5.80;99.90
22940;DHT22;11636;52.086;5.090;2024-03-08T09:31:03;5.90;99.90
22940;DHT22;11636;52.086;5.090;2024-03-08T09:33:36;5.90;99.90
22940;DHT22;11636;52.086;5.090;2024-03-08T09:36:03;6.00;99.90
22940;DHT22;11636;52.086;5.090;2024-03-08T09:38:37;6.10;99.90
22940;DHT22;11636;52.086;5.090;2024-03-08T09:41:07;6.20;99.90
22940;DHT22;11636;52.086;5.090;2024-03-08T09:43:44;6.30;99.90
22940;DHT22;11636;52.086;5.090;2024-03-08T09:46:12;6.30;99.90
22940;DHT22;11636;52.086;5.090;2024-03-08T09:48:47;6.40;99.90
22940;DHT22;11636;52.086;5.090;2024-03-08T09:51:14;6.50;99.90
22940;DHT22;11636;52.086;5.090;2024-03-08T09:53:48;6.60;99.90
22940;DHT22;11636;52.086;5.090;2024-03-08T09:56:15;6.70;99.90
22940;DHT22;11636;52.086;5.090;2024-03-08T09:58:48;6.70;99.90
22940;DHT22;11636;52.086;5.090;2024-03-08T10:01:33;6.80;99.90
22940;DHT22;11636;52.086;5.090;2024-03-08T10:04:06;6.90;99.90
22940;DHT22;11636;52.086;5.090;2024-03-08T10:06:33;7.00;99.90
22940;DHT22;11636;52.086;5.090;2024-03-08T10:09:07;7.10;99.90
22940;DHT22;11636;52.086;5.090;2024-03-08T10:11:34;7.20;99.90
22940;DHT22;11636;52.086;5.090;2024-03-08T10:14:09;7.30;99.90
22940;DHT22;11636;52.086;5.090;2024-03-08T10:16:40;7.40;99.90
22940;DHT22;11636;52.086;5.090;2024-03-08T10:19:13;7.50;99.90
22940;DHT22;11636;52.086;5.090;2024-03-08T10:21:50;7.60;99.90
22940;DHT22;11636;52.086;5.090;2024-03-08T10:24:26;7.70;99.90
22940;DHT22;11636;52.086;5.090;2024-03-08T10:26:59;7.70;99.90
22940;DHT22;11636;52.086;5.090;2024-03-08T10:29:33;7.80;99.90
22940;DHT22;11636;52.086;5.090;2024-03-08T10:32:07;7.90;99.90
22940;DHT22;11636;52.086;5.090;2024-03-08T10:34:41;8.00;99.90
22940;DHT22;11636;52.086;5.090;2024-03-08T10:37:16;8.10;99.90
22940;DHT22;11636;52.086;5.090;2024-03-08T10:40:05;8.20;99.90
22940;DHT22;11636;52.086;5.090;2024-03-08T10:43:00;8.40;99.90
22940;DHT22;11636;52.086;5.090;2024-03-08T10:45:39;8.60;99.90
22940;DHT22;11636;52.086;5.090;2024-03-08T10:48:28;8.60;99.90
22940;DHT22;11636;52.086;5.090;2024-03-08T10:51:05;8.80;99.90
22940;DHT22;11636;52.086;5.090;2024-03-08T10:53:41;8.90;99.90
22940;DHT22;11636;52.086;5.090;2024-03-08T10:56:09;9.10;99.90
22940;DHT22;11636;52.086;5.090;2024-03-08T10:58:44;9.10;99.90
22940;DHT22;11636;52.086;5.090;2024-03-08T11:01:11;9.20;99.90
22940;DHT22;11636;52.086;5.090;2024-03-08T11:03:46;9.20;99.90
22940;DHT22;11636;52.086;5.090;2024-03-08T11:09:31;9.50;99.90
22940;DHT22;11636;52.086;5.090;2024-03-08T11:12:26;9.60;99.90
22940;DHT22;11636;52.086;5.090;2024-03-08T11:14:59;9.80;99.90
22940;DHT22;11636;52.086;5.090;2024-03-08T11:20:01;10.10;99.90
22940;DHT22;11636;52.086;5.090;2024-03-08T11:22:38;10.20;99.90
22940;DHT22;11636;52.086;5.090;2024-03-08T11:25:37;10.30;99.90
22940;DHT22;11636;52.086;5.090;2024-03-08T11:28:23;10.50;99.90
22940;DHT22;11636;52.086;5.090;2024-03-08T11:33:30;10.60;99.90
22940;DHT22;11636;52.086;5.090;2024-03-08T11:36:08;10.70;99.90
22940;DHT22;11636;52.086;5.090;2024-03-08T11:38:44;10.80;99.90
22940;DHT22;11636;52.086;5.090;2024-03-08T11:41:19;11.00;99.90
22940;DHT22;11636;52.086;5.090;2024-03-08T11:43:46;11.20;99.90
22940;DHT22;11636;52.086;5.090;2024-03-08T11:46:15;11.30;99.90
22940;DHT22;11636;52.086;5.090;2024-03-08T11:48:49;11.50;99.90
22940;DHT22;11636;52.086;5.090;2024-03-08T11:51:16;11.70;99.90
22940;DHT22;11636;52.086;5.090;2024-03-08T11:53:52;11.80;99.90
22940;DHT22;11636;52.086;5.090;2024-03-08T11:56:26;11.90;99.90
22940;DHT22;11636;52.086;5.090;2024-03-08T11:59:00;12.00;99.90
22940;DHT22;11636;52.086;5.090;2024-03-08T12:01:28;12.00;99.90
22940;DHT22;11636;52.086;5.090;2024-03-08T12:04:02;12.00;99.90
22940;DHT22;11636;52.086;5.090;2024-03-08T12:06:39;12.00;99.90
22940;DHT22;11636;52.086;5.090;2024-03-08T12:09:13;12.10;99.90
22940;DHT22;11636;52.086;5.090;2024-03-08T12:11:41;12.20;99.90
22940;DHT22;11636;52.086;5.090;2024-03-08T12:14:15;12.30;99.90
22940;DHT22;11636;52.086;5.090;2024-03-08T12:16:42;12.40;99.80
22940;DHT22;11636;52.086;5.090;2024-03-08T12:19:10;12.50;99.50
22940;DHT22;11636;52.086;5.090;2024-03-08T12:21:43;12.50;98.60
22940;DHT22;11636;52.086;5.090;2024-03-08T12:24:18;12.50;98.40
22940;DHT22;11636;52.086;5.090;2024-03-08T12:26:52;12.60;98.50
22940;DHT22;11636;52.086;5.090;2024-03-08T12:29:27;12.80;98.60
22940;DHT22;11636;52.086;5.090;2024-03-08T12:32:00;12.90;98.30
22940;DHT22;11636;52.086;5.090;2024-03-08T12:34:28;13.00;97.90
22940;DHT22;11636;52.086;5.090;2024-03-08T12:37:01;13.00;97.70
22940;DHT22;11636;52.086;5.090;2024-03-08T12:39:30;13.10;97.60
22940;DHT22;11636;52.086;5.090;2024-03-08T12:42:03;13.10;97.20
22940;DHT22;11636;52.086;5.090;2024-03-08T12:44:30;13.10;97.30
22940;DHT22;11636;52.086;5.090;2024-03-08T12:46:57;13.20;96.60
22940;DHT22;11636;52.086;5.090;2024-03-08T12:49:31;13.20;96.80
22940;DHT22;11636;52.086;5.090;2024-03-08T12:51:58;13.20;96.60
22940;DHT22;11636;52.086;5.090;2024-03-08T12:54:32;13.30;96.40
22940;DHT22;11636;52.086;5.090;2024-03-08T12:56:59;13.40;96.50
22940;DHT22;11636;52.086;5.090;2024-03-08T12:59:33;13.40;96.20
22940;DHT22;11636;52.086;5.090;2024-03-08T13:02:00;13.50;96.40
22940;DHT22;11636;52.086;5.090;2024-03-08T13:04:33;13.70;96.30
22940;DHT22;11636;52.086;5.090;2024-03-08T13:07:00;13.80;96.10
22940;DHT22;11636;52.086;5.090;2024-03-08T13:09:28;13.80;95.70
22940;DHT22;11636;52.086;5.090;2024-03-08T13:12:01;13.90;95.70
22940;DHT22;11636;52.086;5.090;2024-03-08T13:14:28;13.80;95.10
22940;DHT22;11636;52.086;5.090;2024-03-08T13:17:11;13.90;95.20
22940;DHT22;11636;52.086;5.090;2024-03-08T13:19:39;13.90;94.90
22940;DHT22;11636;52.086;5.090;2024-03-08T13:22:12;13.80;94.70
22940;DHT22;11636;52.086;5.090;2024-03-08T13:24:39;13.70;94.10
22940;DHT22;11636;52.086;5.090;2024-03-08T13:27:20;13.60;94.30
22940;DHT22;11636;52.086;5.090;2024-03-08T13:29:48;13.60;94.60
22940;DHT22;11636;52.086;5.090;2024-03-08T13:32:21;13.50;94.30
22940;DHT22;11636;52.086;5.090;2024-03-08T13:34:49;13.50;94.30
22940;DHT22;11636;52.086;5.090;2024-03-08T13:37:18;13.50;94.10
22940;DHT22;11636;52.086;5.090;2024-03-08T13:39:52;13.50;94.50
22940;DHT22;11636;52.086;5.090;2024-03-08T13:42:19;13.60;94.50
22940;DHT22;11636;52.086;5.090;2024-03-08T13:44:53;13.70;94.10
22940;DHT22;11636;52.086;5.090;2024-03-08T13:47:20;13.50;93.80
22940;DHT22;11636;52.086;5.090;2024-03-08T13:49:47;13.50;93.60
22940;DHT22;11636;52.086;5.090;2024-03-08T13:52:23;13.40;93.70
22940;DHT22;11636;52.086;5.090;2024-03-08T13:54:51;13.40;94.00
22940;DHT22;11636;52.086;5.090;2024-03-08T13:57:24;13.50;94.10
22940;DHT22;11636;52.086;5.090;2024-03-08T13:59:51;13.50;93.90
22940;DHT22;11636;52.086;5.090;2024-03-08T14:02:25;13.50;94.20
22940;DHT22;11636;52.086;5.090;2024-03-08T14:04:55;13.60;94.20
22940;DHT22;11636;52.086;5.090;2024-03-08T14:07:29;13.50;94.00
22940;DHT22;11636;52.086;5.090;2024-03-08T14:09:55;13.40;94.00
22940;DHT22;11636;52.086;5.090;2024-03-08T14:12:29;13.30;94.00
22940;DHT22;11636;52.086;5.090;2024-03-08T14:15:02;13.30;94.20
22940;DHT22;11636;52.086;5.090;2024-03-08T14:17:38;13.20;94.20
22940;DHT22;11636;52.086;5.090;2024-03-08T14:20:06;13.00;94.40
22940;DHT22;11636;52.086;5.090;2024-03-08T14:22:34;12.90;94.30
22940;DHT22;11636;52.086;5.090;2024-03-08T14:25:07;12.80;94.70
22940;DHT22;11636;52.086;5.090;2024-03-08T14:27:50;12.60;95.00
22940;DHT22;11636;52.086;5.090;2024-03-08T14:30:30;12.50;95.30
22940;DHT22;11636;52.086;5.090;2024-03-08T14:33:15;12.50;95.50
22940;DHT22;11636;52.086;5.090;2024-03-08T14:35:49;12.40;95.70
22940;DHT22;11636;52.086;5.090;2024-03-08T14:38:16;12.20;95.80
22940;DHT22;11636;52.086;5.090;2024-03-08T14:40:50;12.00;95.90
22940;DHT22;11636;52.086;5.090;2024-03-08T14:43:17;11.80;96.20
22940;DHT22;11636;52.086;5.090;2024-03-08T14:45:55;11.70;96.50
22940;DHT22;11636;52.086;5.090;2024-03-08T14:48:22;11.50;96.90
22940;DHT22;11636;52.086;5.090;2024-03-08T14:50:49;11.40;97.30
22940;DHT22;11636;52.086;5.090;2024-03-08T14:53:23;11.30;97.60
22940;DHT22;11636;52.086;5.090;2024-03-08T14:55:57;11.20;98.10
22940;DHT22;11636;52.086;5.090;2024-03-08T14:58:31;11.20;98.30
22940;DHT22;11636;52.086;5.090;2024-03-08T15:00:59;11.00;98.50
22940;DHT22;11636;52.086;5.090;2024-03-08T15:03:36;10.90;98.70
22940;DHT22;11636;52.086;5.090;2024-03-08T15:06:04;10.80;99.00
22940;DHT22;11636;52.086;5.090;2024-03-08T15:08:38;10.80;99.30
22940;DHT22;11636;52.086;5.090;2024-03-08T15:11:12;10.70;99.60
22940;DHT22;11636;52.086;5.090;2024-03-08T15:13:51;10.70;99.70
22940;DHT22;11636;52.086;5.090;2024-03-08T15:16:20;10.60;99.80
22940;DHT22;11636;52.086;5.090;2024-03-08T15:18:57;10.50;99.90
22940;DHT22;11636;52.086;5.090;2024-03-08T15:21:26;10.50;99.90
22940;DHT22;11636;52.086;5.090;2024-03-08T15:24:00;10.50;99.90
22940;DHT22;11636;52.086;5.090;2024-03-08T15:26:29;10.40;99.90
22940;DHT22;11636;52.086;5.090;2024-03-08T15:29:05;10.40;99.90
22940;DHT22;11636;52.086;5.090;2024-03-08T15:31:33;10.40;99.90
22940;DHT22;11636;52.086;5.090;2024-03-08T15:34:01;10.40;99.90
22940;DHT22;11636;52.086;5.090;2024-03-08T15:36:38;10.30;99.90
22940;DHT22;11636;52.086;5.090;2024-03-08T15:39:09;10.30;99.90
22940;DHT22;11636;52.086;5.090;2024-03-08T15:41:44;10.30;99.90
22940;DHT22;11636;52.086;5.090;2024-03-08T15:44:17;10.30;99.90
22940;DHT22;11636;52.086;5.090;2024-03-08T15:46:50;10.20;99.90
22940;DHT22;11636;52.086;5.090;2024-03-08T15:49:17;10.20;99.90
22940;DHT22;11636;52.086;5.090;2024-03-08T15:51:46;10.10;99.90
22940;DHT22;11636;52.086;5.090;2024-03-08T15:54:19;10.10;99.90
22940;DHT22;11636;52.086;5.090;2024-03-08T15:56:48;10.10;99.90
22940;DHT22;11636;52.086;5.090;2024-03-08T15:59:21;10.10;99.90
22940;DHT22;11636;52.086;5.090;2024-03-08T16:01:48;10.00;99.90
22940;DHT22;11636;52.086;5.090;2024-03-08T16:04:18;10.00;99.90
22940;DHT22;11636;52.086;5.090;2024-03-08T16:06:55;9.90;99.90
22940;DHT22;11636;52.086;5.090;2024-03-08T16:09:29;9.80;99.90
22940;DHT22;11636;52.086;5.090;2024-03-08T16:11:57;9.80;99.90
22940;DHT22;11636;52.086;5.090;2024-03-08T16:14:36;9.80;99.90
22940;DHT22;11636;52.086;5.090;2024-03-08T16:17:03;9.80;99.90
22940;DHT22;11636;52.086;5.090;2024-03-08T16:19:37;9.70;99.90
22940;DHT22;11636;52.086;5.090;2024-03-08T16:22:04;9.70;99.90